KLAX/LAX METAR and TAF weather

Enter ICAO airport designator
Station Type Date Time Source
KLAX METAR 2020/10/22 03:53 UTC NOAA

KLAX 220353Z 22004KT 9SM OVC016 19/15 A2983 RMK AO2 SLP100 T01890150


Station Type Date Time Source
KLAX Decoded METAR 2020/10/22 03:53 UTC NOAA

LOS ANGELES INTERNTL AIRPORT, CA, United States (KLAX) 33-56N 118-23W 46M
Oct 21, 2020 - 11:53 PM EDT / 2020.10.22 0353 UTC
Wind: from the SW (220 degrees) at 5 MPH (4 KT):0
Visibility: 9 mile(s):0
Sky conditions: overcast
Temperature: 66.0 F (18.9 C)
Dew Point: 59.0 F (15.0 C)
Relative Humidity: 78%
Pressure (altimeter): 29.83 in. Hg (1010 hPa)
ob: KLAX 220353Z 22004KT 9SM OVC016 19/15 A2983 RMK AO2 SLP100 T01890150
cycle: 4

Station Type Date Time Source
KLAX TAF 2020/10/22 03:04 UTC NOAA

TAF
AMD KLAX 220302Z 2203/2306 25006KT P6SM BKN016
FM220500 VRB03KT 5SM BR OVC012
FM221400 VRB03KT P6SM OVC015
FM222200 25010KT P6SM BKN040
FM230300 26005KT P6SM BKN015

Example: see airport list